sensor_id;sensor_type;location;lat;lon;timestamp;temperature;humidity
871;DHT22;422;51.280;7.236;2023-09-19T00:00:06;15.30;1.00
871;DHT22;422;51.280;7.236;2023-09-19T00:02:33;15.30;1.00
871;DHT22;422;51.280;7.236;2023-09-19T00:05:04;15.30;1.00
871;DHT22;422;51.280;7.236;2023-09-19T00:07:31;15.20;1.00
871;DHT22;422;51.280;7.236;2023-09-19T00:09:58;15.20;1.00
871;DHT22;422;51.280;7.236;2023-09-19T00:12:26;15.10;1.00
871;DHT22;422;51.280;7.236;2023-09-19T00:14:53;15.10;1.00
871;DHT22;422;51.280;7.236;2023-09-19T00:17:21;15.10;1.00
871;DHT22;422;51.280;7.236;2023-09-19T00:19:48;15.10;1.00
871;DHT22;422;51.280;7.236;2023-09-19T00:22:20;15.10;63.10
871;DHT22;422;51.280;7.236;2023-09-19T00:24:47;15.00;46.90
871;DHT22;422;51.280;7.236;2023-09-19T00:27:14;15.00;99.90
871;DHT22;422;51.280;7.236;2023-09-19T00:29:41;15.00;99.90
871;DHT22;422;51.280;7.236;2023-09-19T00:32:09;15.00;99.90
871;DHT22;422;51.280;7.236;2023-09-19T00:34:36;15.00;91.80
871;DHT22;422;51.280;7.236;2023-09-19T00:37:03;15.00;99.90
871;DHT22;422;51.280;7.236;2023-09-19T00:39:32;15.00;99.90
871;DHT22;422;51.280;7.236;2023-09-19T00:41:59;14.90;99.90
871;DHT22;422;51.280;7.236;2023-09-19T00:44:30;14.90;99.90
871;DHT22;422;51.280;7.236;2023-09-19T00:47:00;14.90;77.20
871;DHT22;422;51.280;7.236;2023-09-19T00:49:28;14.90;1.00
871;DHT22;422;51.280;7.236;2023-09-19T00:51:56;14.90;50.50
871;DHT22;422;51.280;7.236;2023-09-19T00:54:25;14.90;6.00
871;DHT22;422;51.280;7.236;2023-09-19T00:56:55;14.90;1.00
871;DHT22;422;51.280;7.236;2023-09-19T00:59:22;14.80;1.00
871;DHT22;422;51.280;7.236;2023-09-19T01:01:50;14.90;1.00
871;DHT22;422;51.280;7.236;2023-09-19T01:04:20;14.80;1.00
871;DHT22;422;51.280;7.236;2023-09-19T01:06:47;14.80;1.00
871;DHT22;422;51.280;7.236;2023-09-19T01:09:18;14.70;1.00
871;DHT22;422;51.280;7.236;2023-09-19T01:11:48;14.80;1.00
871;DHT22;422;51.280;7.236;2023-09-19T01:14:25;14.80;1.00
871;DHT22;422;51.280;7.236;2023-09-19T01:17:03;14.80;1.00
871;DHT22;422;51.280;7.236;2023-09-19T01:20:06;14.70;1.00
871;DHT22;422;51.280;7.236;2023-09-19T01:22:42;14.70;1.00
871;DHT22;422;51.280;7.236;2023-09-19T01:25:45;14.70;1.00
871;DHT22;422;51.280;7.236;2023-09-19T01:28:30;14.70;1.00
871;DHT22;422;51.280;7.236;2023-09-19T01:31:06;14.70;1.00
871;DHT22;422;51.280;7.236;2023-09-19T01:33:59;14.70;1.00
871;DHT22;422;51.280;7.236;2023-09-19T01:36:31;14.70;1.00
871;DHT22;422;51.280;7.236;2023-09-19T01:39:02;14.70;1.00
871;DHT22;422;51.280;7.236;2023-09-19T01:41:47;14.70;1.00
871;DHT22;422;51.280;7.236;2023-09-19T01:44:29;14.80;1.00
871;DHT22;422;51.280;7.236;2023-09-19T01:47:06;14.70;1.00
871;DHT22;422;51.280;7.236;2023-09-19T01:49:44;14.70;1.00
871;DHT22;422;51.280;7.236;2023-09-19T01:52:16;14.70;1.00
871;DHT22;422;51.280;7.236;2023-09-19T01:54:50;14.70;1.00
871;DHT22;422;51.280;7.236;2023-09-19T01:57:29;14.70;1.00
871;DHT22;422;51.280;7.236;2023-09-19T02:00:02;14.60;1.00
871;DHT22;422;51.280;7.236;2023-09-19T02:02:35;14.60;1.00
871;DHT22;422;51.280;7.236;2023-09-19T02:05:04;14.70;1.00
871;DHT22;422;51.280;7.236;2023-09-19T02:07:32;14.60;1.00
871;DHT22;422;51.280;7.236;2023-09-19T02:09:59;14.60;1.00
871;DHT22;422;51.280;7.236;2023-09-19T02:12:27;14.60;1.00
871;DHT22;422;51.280;7.236;2023-09-19T02:14:54;14.60;1.00
871;DHT22;422;51.280;7.236;2023-09-19T02:17:23;14.60;1.00
871;DHT22;422;51.280;7.236;2023-09-19T02:19:53;14.60;1.00
871;DHT22;422;51.280;7.236;2023-09-19T02:22:20;14.60;99.90
871;DHT22;422;51.280;7.236;2023-09-19T02:24:50;14.50;99.90
871;DHT22;422;51.280;7.236;2023-09-19T02:27:18;14.60;99.90
871;DHT22;422;51.280;7.236;2023-09-19T02:29:45;14.60;99.90
871;DHT22;422;51.280;7.236;2023-09-19T02:32:13;14.50;99.90
871;DHT22;422;51.280;7.236;2023-09-19T02:34:40;14.60;99.90
871;DHT22;422;51.280;7.236;2023-09-19T02:37:09;14.60;99.90
871;DHT22;422;51.280;7.236;2023-09-19T02:39:38;14.50;99.90
871;DHT22;422;51.280;7.236;2023-09-19T02:42:06;14.50;99.90
871;DHT22;422;51.280;7.236;2023-09-19T02:44:33;14.60;99.90
871;DHT22;422;51.280;7.236;2023-09-19T02:47:01;14.50;99.90
871;DHT22;422;51.280;7.236;2023-09-19T02:49:28;14.50;99.90
871;DHT22;422;51.280;7.236;2023-09-19T02:51:56;14.50;1.00
871;DHT22;422;51.280;7.236;2023-09-19T02:54:26;14.50;1.00
871;DHT22;422;51.280;7.236;2023-09-19T02:56:55;14.40;1.00
871;DHT22;422;51.280;7.236;2023-09-19T02:59:25;14.40;1.00
871;DHT22;422;51.280;7.236;2023-09-19T03:01:54;14.40;1.00
871;DHT22;422;51.280;7.236;2023-09-19T03:04:21;14.40;1.00
871;DHT22;422;51.280;7.236;2023-09-19T03:06:49;14.40;1.00
871;DHT22;422;51.280;7.236;2023-09-19T03:09:17;14.40;1.00
871;DHT22;422;51.280;7.236;2023-09-19T03:11:46;14.40;1.00
871;DHT22;422;51.280;7.236;2023-09-19T03:14:14;14.30;1.00
871;DHT22;422;51.280;7.236;2023-09-19T03:16:41;14.30;1.00
871;DHT22;422;51.280;7.236;2023-09-19T03:19:10;14.30;1.00
871;DHT22;422;51.280;7.236;2023-09-19T03:21:37;14.30;1.00
871;DHT22;422;51.280;7.236;2023-09-19T03:24:05;14.30;1.00
871;DHT22;422;51.280;7.236;2023-09-19T03:26:33;14.20;1.00
871;DHT22;422;51.280;7.236;2023-09-19T03:29:04;14.20;1.00
871;DHT22;422;51.280;7.236;2023-09-19T03:31:34;14.20;1.00
871;DHT22;422;51.280;7.236;2023-09-19T03:34:03;14.20;99.90
871;DHT22;422;51.280;7.236;2023-09-19T03:36:31;14.20;99.90
871;DHT22;422;51.280;7.236;2023-09-19T03:39:00;14.20;1.00
871;DHT22;422;51.280;7.236;2023-09-19T03:41:31;14.10;99.90
871;DHT22;422;51.280;7.236;2023-09-19T03:43:59;14.10;99.90
871;DHT22;422;51.280;7.236;2023-09-19T03:46:28;14.10;1.00
871;DHT22;422;51.280;7.236;2023-09-19T03:48:56;14.10;1.00
871;DHT22;422;51.280;7.236;2023-09-19T03:51:23;14.10;1.00
871;DHT22;422;51.280;7.236;2023-09-19T03:53:50;14.00;99.90
871;DHT22;422;51.280;7.236;2023-09-19T03:56:17;14.00;79.10
871;DHT22;422;51.280;7.236;2023-09-19T03:58:44;13.90;1.00
871;DHT22;422;51.280;7.236;2023-09-19T04:01:11;13.90;1.00
871;DHT22;422;51.280;7.236;2023-09-19T04:03:41;13.90;1.00
871;DHT22;422;51.280;7.236;2023-09-19T04:06:14;13.90;1.00
871;DHT22;422;51.280;7.236;2023-09-19T04:08:41;13.90;1.00
871;DHT22;422;51.280;7.236;2023-09-19T04:11:09;13.90;1.00
871;DHT22;422;51.280;7.236;2023-09-19T04:13:36;13.90;1.00
871;DHT22;422;51.280;7.236;2023-09-19T04:16:05;13.90;1.00
871;DHT22;422;51.280;7.236;2023-09-19T04:18:33;13.80;1.00
871;DHT22;422;51.280;7.236;2023-09-19T04:21:04;13.90;1.00
871;DHT22;422;51.280;7.236;2023-09-19T04:23:33;13.90;1.00
871;DHT22;422;51.280;7.236;2023-09-19T04:26:00;13.80;1.00
871;DHT22;422;51.280;7.236;2023-09-19T04:28:29;13.90;1.00
871;DHT22;422;51.280;7.236;2023-09-19T04:30:56;13.80;1.00
871;DHT22;422;51.280;7.236;2023-09-19T04:33:25;13.90;1.00
871;DHT22;422;51.280;7.236;2023-09-19T04:35:52;13.90;1.00
871;DHT22;422;51.280;7.236;2023-09-19T04:38:22;13.90;1.00
871;DHT22;422;51.280;7.236;2023-09-19T04:40:49;13.80;32.60
871;DHT22;422;51.280;7.236;2023-09-19T04:43:17;13.80;1.00
871;DHT22;422;51.280;7.236;2023-09-19T04:45:44;13.80;14.70
871;DHT22;422;51.280;7.236;2023-09-19T04:48:12;13.80;99.90
871;DHT22;422;51.280;7.236;2023-09-19T04:50:40;13.80;99.90
871;DHT22;422;51.280;7.236;2023-09-19T04:53:07;13.80;1.00
871;DHT22;422;51.280;7.236;2023-09-19T04:55:36;13.80;1.00
871;DHT22;422;51.280;7.236;2023-09-19T04:58:03;13.70;84.00
871;DHT22;422;51.280;7.236;2023-09-19T05:00:31;13.80;1.00
871;DHT22;422;51.280;7.236;2023-09-19T05:03:02;13.80;79.60
871;DHT22;422;51.280;7.236;2023-09-19T05:05:31;13.70;95.90
871;DHT22;422;51.280;7.236;2023-09-19T05:08:00;13.70;99.90
871;DHT22;422;51.280;7.236;2023-09-19T05:10:31;13.70;99.90
871;DHT22;422;51.280;7.236;2023-09-19T05:12:59;13.70;99.90
871;DHT22;422;51.280;7.236;2023-09-19T05:15:27;13.60;99.90
871;DHT22;422;51.280;7.236;2023-09-19T05:17:54;13.60;99.90
871;DHT22;422;51.280;7.236;2023-09-19T05:20:21;13.60;28.80
871;DHT22;422;51.280;7.236;2023-09-19T05:22:58;13.60;99.90
871;DHT22;422;51.280;7.236;2023-09-19T05:25:27;13.60;1.00
871;DHT22;422;51.280;7.236;2023-09-19T05:27:58;13.50;1.00
871;DHT22;422;51.280;7.236;2023-09-19T05:30:29;13.50;99.90
871;DHT22;422;51.280;7.236;2023-09-19T05:32:57;13.50;99.90
871;DHT22;422;51.280;7.236;2023-09-19T05:35:24;13.50;99.90
871;DHT22;422;51.280;7.236;2023-09-19T05:37:53;13.50;99.90
871;DHT22;422;51.280;7.236;2023-09-19T05:40:21;13.60;99.90
871;DHT22;422;51.280;7.236;2023-09-19T05:42:49;13.70;95.20
871;DHT22;422;51.280;7.236;2023-09-19T05:45:18;13.80;1.00
871;DHT22;422;51.280;7.236;2023-09-19T05:47:48;13.80;1.00
871;DHT22;422;51.280;7.236;2023-09-19T05:50:16;13.90;1.00
871;DHT22;422;51.280;7.236;2023-09-19T05:52:51;13.90;5.70
871;DHT22;422;51.280;7.236;2023-09-19T05:55:19;14.00;1.00
871;DHT22;422;51.280;7.236;2023-09-19T05:57:50;14.00;1.00
871;DHT22;422;51.280;7.236;2023-09-19T06:00:22;14.10;1.00
871;DHT22;422;51.280;7.236;2023-09-19T06:02:51;14.10;1.00
871;DHT22;422;51.280;7.236;2023-09-19T06:05:19;14.10;99.90
871;DHT22;422;51.280;7.236;2023-09-19T06:07:47;14.20;1.00
871;DHT22;422;51.280;7.236;2023-09-19T06:10:14;14.20;1.00
871;DHT22;422;51.280;7.236;2023-09-19T06:12:43;14.20;1.00
871;DHT22;422;51.280;7.236;2023-09-19T06:15:11;14.30;1.00
871;DHT22;422;51.280;7.236;2023-09-19T06:17:42;14.30;99.90
871;DHT22;422;51.280;7.236;2023-09-19T06:20:10;14.40;99.90
871;DHT22;422;51.280;7.236;2023-09-19T06:22:41;14.40;99.90
871;DHT22;422;51.280;7.236;2023-09-19T06:25:09;14.40;99.90
871;DHT22;422;51.280;7.236;2023-09-19T06:27:38;14.40;99.90
871;DHT22;422;51.280;7.236;2023-09-19T06:30:08;14.50;99.90
871;DHT22;422;51.280;7.236;2023-09-19T06:32:37;14.50;99.90
871;DHT22;422;51.280;7.236;2023-09-19T06:35:06;14.50;99.90
871;DHT22;422;51.280;7.236;2023-09-19T06:37:36;14.60;99.90
871;DHT22;422;51.280;7.236;2023-09-19T06:40:07;14.60;99.90
871;DHT22;422;51.280;7.236;2023-09-19T06:42:40;14.60;99.90
871;DHT22;422;51.280;7.236;2023-09-19T06:45:08;14.70;1.00
871;DHT22;422;51.280;7.236;2023-09-19T06:47:37;14.70;1.00
871;DHT22;422;51.280;7.236;2023-09-19T06:50:06;14.80;1.00
871;DHT22;422;51.280;7.236;2023-09-19T06:52:39;14.80;1.00
871;DHT22;422;51.280;7.236;2023-09-19T06:55:07;14.80;1.00
871;DHT22;422;51.280;7.236;2023-09-19T06:57:35;14.70;1.00
871;DHT22;422;51.280;7.236;2023-09-19T07:00:03;14.80;1.00
871;DHT22;422;51.280;7.236;2023-09-19T07:02:35;14.90;1.00
871;DHT22;422;51.280;7.236;2023-09-19T07:05:02;15.00;99.90
871;DHT22;422;51.280;7.236;2023-09-19T07:07:32;15.10;1.00
871;DHT22;422;51.280;7.236;2023-09-19T07:10:00;15.10;1.00
871;DHT22;422;51.280;7.236;2023-09-19T07:12:28;15.20;1.00
871;DHT22;422;51.280;7.236;2023-09-19T07:14:55;15.30;1.00
871;DHT22;422;51.280;7.236;2023-09-19T07:17:22;15.30;1.00
871;DHT22;422;51.280;7.236;2023-09-19T07:19:50;15.40;1.00
871;DHT22;422;51.280;7.236;2023-09-19T07:22:17;15.50;1.00
871;DHT22;422;51.280;7.236;2023-09-19T07:24:46;15.50;1.00
871;DHT22;422;51.280;7.236;2023-09-19T07:27:14;15.70;1.00
871;DHT22;422;51.280;7.236;2023-09-19T07:29:42;15.70;99.90
871;DHT22;422;51.280;7.236;2023-09-19T07:32:10;15.80;99.90
871;DHT22;422;51.280;7.236;2023-09-19T07:34:40;15.90;99.90
871;DHT22;422;51.280;7.236;2023-09-19T07:37:07;15.80;99.90
871;DHT22;422;51.280;7.236;2023-09-19T07:39:35;15.80;99.90
871;DHT22;422;51.280;7.236;2023-09-19T07:42:04;15.90;99.90
871;DHT22;422;51.280;7.236;2023-09-19T07:44:34;15.90;99.90
871;DHT22;422;51.280;7.236;2023-09-19T07:47:02;15.90;99.90
871;DHT22;422;51.280;7.236;2023-09-19T07:49:29;16.00;99.90
871;DHT22;422;51.280;7.236;2023-09-19T07:51:56;16.00;99.90
871;DHT22;422;51.280;7.236;2023-09-19T07:54:24;16.10;99.90
871;DHT22;422;51.280;7.236;2023-09-19T07:56:52;16.20;99.90
871;DHT22;422;51.280;7.236;2023-09-19T07:59:21;16.20;99.90
871;DHT22;422;51.280;7.236;2023-09-19T08:01:49;16.30;99.90
871;DHT22;422;51.280;7.236;2023-09-19T08:04:16;16.40;92.30
871;DHT22;422;51.280;7.236;2023-09-19T08:06:45;16.40;19.50
871;DHT22;422;51.280;7.236;2023-09-19T08:09:12;16.50;18.30
871;DHT22;422;51.280;7.236;2023-09-19T08:11:46;16.50;1.00
871;DHT22;422;51.280;7.236;2023-09-19T08:14:14;16.40;1.00
871;DHT22;422;51.280;7.236;2023-09-19T08:16:42;16.40;1.00
871;DHT22;422;51.280;7.236;2023-09-19T08:19:10;16.40;1.00
871;DHT22;422;51.280;7.236;2023-09-19T08:21:37;16.40;1.00
871;DHT22;422;51.280;7.236;2023-09-19T08:24:05;16.30;1.00
871;DHT22;422;51.280;7.236;2023-09-19T08:26:33;16.50;1.00
871;DHT22;422;51.280;7.236;2023-09-19T08:29:03;16.70;1.00
871;DHT22;422;51.280;7.236;2023-09-19T08:31:32;16.70;1.00
871;DHT22;422;51.280;7.236;2023-09-19T08:34:02;16.70;1.00
871;DHT22;422;51.280;7.236;2023-09-19T08:36:29;16.70;1.00
871;DHT22;422;51.280;7.236;2023-09-19T08:38:56;17.00;1.00
871;DHT22;422;51.280;7.236;2023-09-19T08:41:24;16.80;1.00
871;DHT22;422;51.280;7.236;2023-09-19T08:43:51;16.90;1.00
871;DHT22;422;51.280;7.236;2023-09-19T08:46:20;17.00;1.00
871;DHT22;422;51.280;7.236;2023-09-19T08:49:00;17.10;1.00
871;DHT22;422;51.280;7.236;2023-09-19T08:51:38;17.20;1.00
871;DHT22;422;51.280;7.236;2023-09-19T08:54:07;17.30;1.00
871;DHT22;422;51.280;7.236;2023-09-19T08:56:36;17.40;1.00
871;DHT22;422;51.280;7.236;2023-09-19T08:59:06;17.50;1.00
871;DHT22;422;51.280;7.236;2023-09-19T09:01:34;17.60;1.00
871;DHT22;422;51.280;7.236;2023-09-19T09:04:02;17.60;1.00
871;DHT22;422;51.280;7.236;2023-09-19T09:06:31;17.80;1.00
871;DHT22;422;51.280;7.236;2023-09-19T09:08:59;17.90;1.00
871;DHT22;422;51.280;7.236;2023-09-19T09:11:27;17.90;1.00
871;DHT22;422;51.280;7.236;2023-09-19T09:13:54;17.70;1.00
871;DHT22;422;51.280;7.236;2023-09-19T09:16:23;17.80;1.00
871;DHT22;422;51.280;7.236;2023-09-19T09:18:51;17.80;1.00
871;DHT22;422;51.280;7.236;2023-09-19T09:21:20;18.00;99.90
871;DHT22;422;51.280;7.236;2023-09-19T09:23:50;17.90;99.90
871;DHT22;422;51.280;7.236;2023-09-19T09:26:41;18.20;99.90
871;DHT22;422;51.280;7.236;2023-09-19T09:29:08;18.40;99.90
871;DHT22;422;51.280;7.236;2023-09-19T09:31:36;18.30;99.90
871;DHT22;422;51.280;7.236;2023-09-19T09:34:03;18.40;99.90
871;DHT22;422;51.280;7.236;2023-09-19T09:36:35;18.60;99.90
871;DHT22;422;51.280;7.236;2023-09-19T09:39:07;18.50;99.90
871;DHT22;422;51.280;7.236;2023-09-19T09:41:44;18.30;99.90
871;DHT22;422;51.280;7.236;2023-09-19T09:44:15;18.50;99.90
871;DHT22;422;51.280;7.236;2023-09-19T09:46:44;18.30;99.90
871;DHT22;422;51.280;7.236;2023-09-19T09:49:47;18.50;99.90
871;DHT22;422;51.280;7.236;2023-09-19T09:52:20;18.70;1.00
871;DHT22;422;51.280;7.236;2023-09-19T09:55:01;18.80;99.90
871;DHT22;422;51.280;7.236;2023-09-19T09:57:31;19.00;99.90
871;DHT22;422;51.280;7.236;2023-09-19T10:00:00;19.30;99.30
871;DHT22;422;51.280;7.236;2023-09-19T10:02:42;19.50;99.90
871;DHT22;422;51.280;7.236;2023-09-19T10:05:13;19.30;97.90
871;DHT22;422;51.280;7.236;2023-09-19T10:07:48;19.20;1.00
871;DHT22;422;51.280;7.236;2023-09-19T10:10:31;19.20;99.90
871;DHT22;422;51.280;7.236;2023-09-19T10:13:10;19.20;1.00
871;DHT22;422;51.280;7.236;2023-09-19T10:15:42;19.20;99.90
871;DHT22;422;51.280;7.236;2023-09-19T10:18:20;19.00;95.40
871;DHT22;422;51.280;7.236;2023-09-19T10:20:47;18.60;1.00
871;DHT22;422;51.280;7.236;2023-09-19T10:23:17;18.50;1.00
871;DHT22;422;51.280;7.236;2023-09-19T10:25:50;18.20;1.00
871;DHT22;422;51.280;7.236;2023-09-19T10:28:19;18.40;1.00
871;DHT22;422;51.280;7.236;2023-09-19T10:30:49;18.70;1.00
871;DHT22;422;51.280;7.236;2023-09-19T10:33:18;18.80;2.40
871;DHT22;422;51.280;7.236;2023-09-19T10:35:47;19.00;99.90
871;DHT22;422;51.280;7.236;2023-09-19T10:38:19;19.40;1.00
871;DHT22;422;51.280;7.236;2023-09-19T10:40:55;19.70;38.50
871;DHT22;422;51.280;7.236;2023-09-19T10:43:28;19.80;6.60
871;DHT22;422;51.280;7.236;2023-09-19T10:46:01;20.10;84.90
871;DHT22;422;51.280;7.236;2023-09-19T10:48:30;20.40;99.90
871;DHT22;422;51.280;7.236;2023-09-19T10:51:04;20.90;99.90
871;DHT22;422;51.280;7.236;2023-09-19T10:53:42;21.40;99.90
871;DHT22;422;51.280;7.236;2023-09-19T10:56:18;21.60;99.90
871;DHT22;422;51.280;7.236;2023-09-19T10:58:46;21.60;99.90
871;DHT22;422;51.280;7.236;2023-09-19T11:01:15;21.60;99.90
871;DHT22;422;51.280;7.236;2023-09-19T11:03:44;21.80;99.90
871;DHT22;422;51.280;7.236;2023-09-19T11:06:13;21.60;99.90
871;DHT22;422;51.280;7.236;2023-09-19T11:09:06;21.00;99.90
871;DHT22;422;51.280;7.236;2023-09-19T11:11:49;20.70;99.90
871;DHT22;422;51.280;7.236;2023-09-19T11:14:37;20.80;99.90
871;DHT22;422;51.280;7.236;2023-09-19T11:20:19;21.70;99.90
871;DHT22;422;51.280;7.236;2023-09-19T11:23:22;21.60;99.90
871;DHT22;422;51.280;7.236;2023-09-19T11:25:50;21.70;99.90
871;DHT22;422;51.280;7.236;2023-09-19T11:28:31;21.70;99.90
871;DHT22;422;51.280;7.236;2023-09-19T11:30:59;21.20;99.90
871;DHT22;422;51.280;7.236;2023-09-19T11:33:27;21.00;99.90
871;DHT22;422;51.280;7.236;2023-09-19T11:36:03;21.00;99.90
871;DHT22;422;51.280;7.236;2023-09-19T11:38:58;21.40;99.90
871;DHT22;422;51.280;7.236;2023-09-19T11:41:40;21.90;99.90
871;DHT22;422;51.280;7.236;2023-09-19T11:44:34;21.90;99.90
871;DHT22;422;51.280;7.236;2023-09-19T11:47:06;21.90;99.90
871;DHT22;422;51.280;7.236;2023-09-19T11:49:35;22.30;99.90
871;DHT22;422;51.280;7.236;2023-09-19T11:52:09;22.70;99.90
871;DHT22;422;51.280;7.236;2023-09-19T11:54:37;22.60;99.90
871;DHT22;422;51.280;7.236;2023-09-19T11:57:08;21.90;99.90
871;DHT22;422;51.280;7.236;2023-09-19T11:59:39;21.50;99.90
871;DHT22;422;51.280;7.236;2023-09-19T12:02:07;21.30;66.40
871;DHT22;422;51.280;7.236;2023-09-19T12:04:38;21.00;99.90
871;DHT22;422;51.280;7.236;2023-09-19T12:07:07;21.00;39.00
871;DHT22;422;51.280;7.236;2023-09-19T12:09:41;20.80;33.10
871;DHT22;422;51.280;7.236;2023-09-19T12:12:11;20.80;32.50
871;DHT22;422;51.280;7.236;2023-09-19T12:14:48;21.00;15.40
871;DHT22;422;51.280;7.236;2023-09-19T12:17:16;21.70;83.80
871;DHT22;422;51.280;7.236;2023-09-19T12:19:50;22.30;99.90
871;DHT22;422;51.280;7.236;2023-09-19T12:22:18;22.40;98.20
871;DHT22;422;51.280;7.236;2023-09-19T12:24:46;22.50;99.90
871;DHT22;422;51.280;7.236;2023-09-19T12:27:15;22.40;99.90
871;DHT22;422;51.280;7.236;2023-09-19T12:29:45;22.70;99.90
871;DHT22;422;51.280;7.236;2023-09-19T12:32:14;23.20;99.90
871;DHT22;422;51.280;7.236;2023-09-19T12:34:49;23.10;95.50
871;DHT22;422;51.280;7.236;2023-09-19T12:37:18;23.30;89.10
871;DHT22;422;51.280;7.236;2023-09-19T12:39:49;23.30;99.90
871;DHT22;422;51.280;7.236;2023-09-19T12:42:19;23.50;89.10
871;DHT22;422;51.280;7.236;2023-09-19T12:44:49;23.50;41.00
871;DHT22;422;51.280;7.236;2023-09-19T12:47:21;23.50;31.50
871;DHT22;422;51.280;7.236;2023-09-19T12:50:08;23.60;47.20
871;DHT22;422;51.280;7.236;2023-09-19T12:52:41;24.10;37.40
871;DHT22;422;51.280;7.236;2023-09-19T12:55:20;23.90;33.90
871;DHT22;422;51.280;7.236;2023-09-19T12:58:07;24.00;35.80
871;DHT22;422;51.280;7.236;2023-09-19T13:00:38;23.50;1.00
871;DHT22;422;51.280;7.236;2023-09-19T13:03:13;23.20;1.20
871;DHT22;422;51.280;7.236;2023-09-19T13:05:51;23.40;3.30
871;DHT22;422;51.280;7.236;2023-09-19T13:08:23;23.40;1.00
871;DHT22;422;51.280;7.236;2023-09-19T13:11:02;23.40;1.00
871;DHT22;422;51.280;7.236;2023-09-19T13:13:32;23.70;2.40
871;DHT22;422;51.280;7.236;2023-09-19T13:16:03;23.80;1.00
871;DHT22;422;51.280;7.236;2023-09-19T13:18:45;23.80;1.00
871;DHT22;422;51.280;7.236;2023-09-19T13:21:14;23.60;1.00
871;DHT22;422;51.280;7.236;2023-09-19T13:23:54;23.30;1.00
871;DHT22;422;51.280;7.236;2023-09-19T13:26:25;23.30;1.00
871;DHT22;422;51.280;7.236;2023-09-19T13:28:53;23.30;1.00
871;DHT22;422;51.280;7.236;2023-09-19T13:31:22;22.90;1.00
871;DHT22;422;51.280;7.236;2023-09-19T13:33:51;22.80;1.00
871;DHT22;422;51.280;7.236;2023-09-19T13:36:18;23.10;1.00
871;DHT22;422;51.280;7.236;2023-09-19T13:38:47;23.40;1.00
871;DHT22;422;51.280;7.236;2023-09-19T13:41:15;23.40;1.00
871;DHT22;422;51.280;7.236;2023-09-19T13:43:43;23.30;1.00
871;DHT22;422;51.280;7.236;2023-09-19T13:46:14;23.50;1.00
871;DHT22;422;51.280;7.236;2023-09-19T13:48:45;23.80;1.00
871;DHT22;422;51.280;7.236;2023-09-19T13:51:13;23.50;1.00
871;DHT22;422;51.280;7.236;2023-09-19T13:53:40;23.40;1.00
871;DHT22;422;51.280;7.236;2023-09-19T13:56:08;23.10;1.00
871;DHT22;422;51.280;7.236;2023-09-19T13:58:35;22.70;1.00
871;DHT22;422;51.280;7.236;2023-09-19T14:01:03;22.80;1.00
871;DHT22;422;51.280;7.236;2023-09-19T14:03:30;22.90;1.00
871;DHT22;422;51.280;7.236;2023-09-19T14:05:59;23.30;1.00
871;DHT22;422;51.280;7.236;2023-09-19T14:08:27;22.90;1.00
871;DHT22;422;51.280;7.236;2023-09-19T14:10:54;22.70;1.00
871;DHT22;422;51.280;7.236;2023-09-19T14:13:22;22.30;1.00
871;DHT22;422;51.280;7.236;2023-09-19T14:15:51;21.90;1.00
871;DHT22;422;51.280;7.236;2023-09-19T14:18:19;21.50;1.00
871;DHT22;422;51.280;7.236;2023-09-19T14:20:48;21.40;1.00
871;DHT22;422;51.280;7.236;2023-09-19T14:23:20;21.20;1.00
871;DHT22;422;51.280;7.236;2023-09-19T14:25:50;21.30;1.00
871;DHT22;422;51.280;7.236;2023-09-19T14:28:17;21.20;1.00
871;DHT22;422;51.280;7.236;2023-09-19T14:30:45;21.10;1.00
871;DHT22;422;51.280;7.236;2023-09-19T14:33:15;20.80;1.00
871;DHT22;422;51.280;7.236;2023-09-19T14:35:43;20.60;26.80
871;DHT22;422;51.280;7.236;2023-09-19T14:38:10;20.50;46.70
871;DHT22;422;51.280;7.236;2023-09-19T14:40:39;20.60;28.40
871;DHT22;422;51.280;7.236;2023-09-19T14:43:08;20.50;65.00
871;DHT22;422;51.280;7.236;2023-09-19T14:45:37;20.40;86.70
871;DHT22;422;51.280;7.236;2023-09-19T14:48:06;20.50;99.90
871;DHT22;422;51.280;7.236;2023-09-19T14:50:34;20.40;99.90
871;DHT22;422;51.280;7.236;2023-09-19T14:53:01;20.40;99.90
871;DHT22;422;51.280;7.236;2023-09-19T14:55:29;20.50;99.90
871;DHT22;422;51.280;7.236;2023-09-19T14:58:01;20.30;99.90
871;DHT22;422;51.280;7.236;2023-09-19T15:00:29;20.60;99.90
871;DHT22;422;51.280;7.236;2023-09-19T15:02:58;20.60;99.90
871;DHT22;422;51.280;7.236;2023-09-19T15:05:25;20.90;99.90
871;DHT22;422;51.280;7.236;2023-09-19T15:07:55;21.10;99.90
871;DHT22;422;51.280;7.236;2023-09-19T15:10:23;21.10;99.90
871;DHT22;422;51.280;7.236;2023-09-19T15:12:51;20.90;99.90
871;DHT22;422;51.280;7.236;2023-09-19T15:15:20;20.60;99.90
871;DHT22;422;51.280;7.236;2023-09-19T15:17:47;20.40;99.90
871;DHT22;422;51.280;7.236;2023-09-19T15:20:15;20.30;99.90
871;DHT22;422;51.280;7.236;2023-09-19T15:22:43;20.10;99.90
871;DHT22;422;51.280;7.236;2023-09-19T15:25:11;20.10;1.00
871;DHT22;422;51.280;7.236;2023-09-19T15:27:39;20.30;1.00
871;DHT22;422;51.280;7.236;2023-09-19T15:30:08;20.20;99.90
871;DHT22;422;51.280;7.236;2023-09-19T15:32:38;20.00;99.90
871;DHT22;422;51.280;7.236;2023-09-19T15:35:07;20.00;99.90
871;DHT22;422;51.280;7.236;2023-09-19T15:37:39;19.70;1.00
871;DHT22;422;51.280;7.236;2023-09-19T15:40:08;19.50;1.00
871;DHT22;422;51.280;7.236;2023-09-19T15:42:42;19.40;1.00
871;DHT22;422;51.280;7.236;2023-09-19T15:45:10;19.50;1.00
871;DHT22;422;51.280;7.236;2023-09-19T15:47:39;19.50;1.00
871;DHT22;422;51.280;7.236;2023-09-19T15:50:07;19.50;3.20
871;DHT22;422;51.280;7.236;2023-09-19T15:52:35;19.50;1.00
871;DHT22;422;51.280;7.236;2023-09-19T15:55:03;19.40;42.30
871;DHT22;422;51.280;7.236;2023-09-19T15:57:32;19.40;46.30
871;DHT22;422;51.280;7.236;2023-09-19T16:00:00;19.40;30.70
871;DHT22;422;51.280;7.236;2023-09-19T16:02:28;19.40;41.90
871;DHT22;422;51.280;7.236;2023-09-19T16:04:57;19.50;99.90
871;DHT22;422;51.280;7.236;2023-09-19T16:07:26;19.50;52.20
871;DHT22;422;51.280;7.236;2023-09-19T16:09:53;19.40;34.60
871;DHT22;422;51.280;7.236;2023-09-19T16:12:21;19.30;99.90
871;DHT22;422;51.280;7.236;2023-09-19T16:14:49;19.40;99.90
871;DHT22;422;51.280;7.236;2023-09-19T16:17:16;19.40;99.90
871;DHT22;422;51.280;7.236;2023-09-19T16:19:44;19.40;99.90
871;DHT22;422;51.280;7.236;2023-09-19T16:22:13;19.40;99.90
871;DHT22;422;51.280;7.236;2023-09-19T16:24:41;19.30;99.90
871;DHT22;422;51.280;7.236;2023-09-19T16:27:08;19.30;99.90
871;DHT22;422;51.280;7.236;2023-09-19T16:29:35;19.20;99.90
871;DHT22;422;51.280;7.236;2023-09-19T16:32:03;19.10;99.90
871;DHT22;422;51.280;7.236;2023-09-19T16:34:31;19.10;99.90
871;DHT22;422;51.280;7.236;2023-09-19T16:36:59;19.10;99.90
871;DHT22;422;51.280;7.236;2023-09-19T16:39:28;19.10;99.90
871;DHT22;422;51.280;7.236;2023-09-19T16:41:56;19.00;99.90
871;DHT22;422;51.280;7.236;2023-09-19T16:44:24;19.00;99.90
871;DHT22;422;51.280;7.236;2023-09-19T16:46:51;18.90;99.90
871;DHT22;422;51.280;7.236;2023-09-19T16:49:18;18.90;99.90
871;DHT22;422;51.280;7.236;2023-09-19T16:51:46;18.90;99.90
871;DHT22;422;51.280;7.236;2023-09-19T16:54:13;18.90;1.00
871;DHT22;422;51.280;7.236;2023-09-19T16:56:42;18.80;99.90
871;DHT22;422;51.280;7.236;2023-09-19T16:59:10;18.80;1.00
871;DHT22;422;51.280;7.236;2023-09-19T17:01:37;18.80;1.00
871;DHT22;422;51.280;7.236;2023-09-19T17:04:05;18.70;1.00
871;DHT22;422;51.280;7.236;2023-09-19T17:06:34;18.60;1.00